sensor_id;sensor_type;location;lat;lon;timestamp;P1;durP1;ratioP1;P2;durP2;ratioP2
36061;SDS011;22123;52.412;20.970;2023-07-29T00:01:00;0.28;;;0.28;;
36061;SDS011;22123;52.412;20.970;2023-07-29T00:03:26;0.20;;;0.20;;
36061;SDS011;22123;52.412;20.970;2023-07-29T00:05:52;0.20;;;0.20;;
36061;SDS011;22123;52.412;20.970;2023-07-29T00:08:18;0.77;;;0.68;;
36061;SDS011;22123;52.412;20.970;2023-07-29T00:10:44;0.28;;;0.28;;
36061;SDS011;22123;52.412;20.970;2023-07-29T00:13:10;0.10;;;0.10;;
36061;SDS011;22123;52.412;20.970;2023-07-29T00:15:35;0.10;;;0.10;;
36061;SDS011;22123;52.412;20.970;2023-07-29T00:18:01;0.50;;;0.17;;
36061;SDS011;22123;52.412;20.970;2023-07-29T00:20:27;1.35;;;0.80;;
36061;SDS011;22123;52.412;20.970;2023-07-29T00:22:53;2.45;;;0.60;;
36061;SDS011;22123;52.412;20.970;2023-07-29T00:25:19;1.23;;;0.52;;
36061;SDS011;22123;52.412;20.970;2023-07-29T00:27:45;0.55;;;0.28;;
36061;SDS011;22123;52.412;20.970;2023-07-29T00:30:11;0.30;;;0.30;;
36061;SDS011;22123;52.412;20.970;2023-07-29T00:32:37;0.30;;;0.20;;
36061;SDS011;22123;52.412;20.970;2023-07-29T00:35:03;0.70;;;0.40;;
36061;SDS011;22123;52.412;20.970;2023-07-29T00:37:29;0.40;;;0.40;;
36061;SDS011;22123;52.412;20.970;2023-07-29T00:39:55;0.35;;;0.35;;
36061;SDS011;22123;52.412;20.970;2023-07-29T00:42:22;0.90;;;0.52;;
36061;SDS011;22123;52.412;20.970;2023-07-29T00:44:48;4.07;;;0.40;;
36061;SDS011;22123;52.412;20.970;2023-07-29T00:49:41;1.17;;;0.50;;
36061;SDS011;22123;52.412;20.970;2023-07-29T00:52:08;1.15;;;0.77;;
36061;SDS011;22123;52.412;20.970;2023-07-29T00:54:33;0.20;;;0.20;;
36061;SDS011;22123;52.412;20.970;2023-07-29T00:56:59;0.15;;;0.15;;
36061;SDS011;22123;52.412;20.970;2023-07-29T00:59:25;1.20;;;0.47;;
36061;SDS011;22123;52.412;20.970;2023-07-29T01:01:51;0.75;;;0.40;;
36061;SDS011;22123;52.412;20.970;2023-07-29T01:04:17;0.35;;;0.35;;
36061;SDS011;22123;52.412;20.970;2023-07-29T01:07:03;0.73;;;0.43;;
36061;SDS011;22123;52.412;20.970;2023-07-29T01:09:41;0.40;;;0.40;;
36061;SDS011;22123;52.412;20.970;2023-07-29T01:12:36;0.73;;;0.65;;
36061;SDS011;22123;52.412;20.970;2023-07-29T01:15:22;0.57;;;0.50;;
36061;SDS011;22123;52.412;20.970;2023-07-29T01:18:08;0.65;;;0.30;;
36061;SDS011;22123;52.412;20.970;2023-07-29T01:20:40;0.30;;;0.30;;
36061;SDS011;22123;52.412;20.970;2023-07-29T01:23:08;1.15;;;1.05;;
36061;SDS011;22123;52.412;20.970;2023-07-29T01:25:34;0.73;;;0.60;;
36061;SDS011;22123;52.412;20.970;2023-07-29T01:27:59;0.95;;;0.63;;
36061;SDS011;22123;52.412;20.970;2023-07-29T01:30:29;0.50;;;0.40;;
36061;SDS011;22123;52.412;20.970;2023-07-29T01:35:45;0.50;;;0.50;;
36061;SDS011;22123;52.412;20.970;2023-07-29T01:40:44;0.75;;;0.75;;
36061;SDS011;22123;52.412;20.970;2023-07-29T01:43:11;1.27;;;0.75;;
36061;SDS011;22123;52.412;20.970;2023-07-29T01:45:38;1.48;;;0.40;;
36061;SDS011;22123;52.412;20.970;2023-07-29T01:48:07;0.68;;;0.68;;
36061;SDS011;22123;52.412;20.970;2023-07-29T01:50:36;0.40;;;0.40;;
36061;SDS011;22123;52.412;20.970;2023-07-29T01:53:02;0.52;;;0.32;;
36061;SDS011;22123;52.412;20.970;2023-07-29T01:55:28;1.17;;;0.88;;
36061;SDS011;22123;52.412;20.970;2023-07-29T01:57:54;0.80;;;0.80;;
36061;SDS011;22123;52.412;20.970;2023-07-29T02:00:20;0.63;;;0.60;;
36061;SDS011;22123;52.412;20.970;2023-07-29T02:02:46;0.93;;;0.50;;
36061;SDS011;22123;52.412;20.970;2023-07-29T02:05:12;0.60;;;0.45;;
36061;SDS011;22123;52.412;20.970;2023-07-29T02:07:38;0.32;;;0.32;;
36061;SDS011;22123;52.412;20.970;2023-07-29T02:10:04;0.95;;;0.52;;
36061;SDS011;22123;52.412;20.970;2023-07-29T02:12:30;1.45;;;0.80;;
36061;SDS011;22123;52.412;20.970;2023-07-29T02:14:56;1.77;;;0.85;;
36061;SDS011;22123;52.412;20.970;2023-07-29T02:17:22;1.38;;;1.08;;
36061;SDS011;22123;52.412;20.970;2023-07-29T02:19:48;1.85;;;0.47;;
36061;SDS011;22123;52.412;20.970;2023-07-29T02:22:16;1.60;;;1.15;;
36061;SDS011;22123;52.412;20.970;2023-07-29T02:24:42;3.60;;;0.50;;
36061;SDS011;22123;52.412;20.970;2023-07-29T02:29:34;1.40;;;1.00;;
36061;SDS011;22123;52.412;20.970;2023-07-29T02:32:00;1.08;;;0.70;;
36061;SDS011;22123;52.412;20.970;2023-07-29T02:34:26;1.70;;;1.60;;
36061;SDS011;22123;52.412;20.970;2023-07-29T02:36:52;0.45;;;0.35;;
36061;SDS011;22123;52.412;20.970;2023-07-29T02:39:18;0.82;;;0.60;;
36061;SDS011;22123;52.412;20.970;2023-07-29T02:41:44;1.30;;;0.65;;
36061;SDS011;22123;52.412;20.970;2023-07-29T02:44:09;0.70;;;0.40;;
36061;SDS011;22123;52.412;20.970;2023-07-29T02:46:35;1.05;;;0.60;;
36061;SDS011;22123;52.412;20.970;2023-07-29T02:49:02;1.90;;;0.63;;
36061;SDS011;22123;52.412;20.970;2023-07-29T02:51:28;0.30;;;0.30;;
36061;SDS011;22123;52.412;20.970;2023-07-29T02:53:54;1.08;;;0.95;;
36061;SDS011;22123;52.412;20.970;2023-07-29T02:56:20;1.23;;;1.13;;
36061;SDS011;22123;52.412;20.970;2023-07-29T02:58:46;2.55;;;1.05;;
36061;SDS011;22123;52.412;20.970;2023-07-29T03:01:12;2.00;;;1.50;;
36061;SDS011;22123;52.412;20.970;2023-07-29T03:03:37;0.73;;;0.73;;
36061;SDS011;22123;52.412;20.970;2023-07-29T03:06:06;1.40;;;0.82;;
36061;SDS011;22123;52.412;20.970;2023-07-29T03:08:33;2.08;;;1.50;;
36061;SDS011;22123;52.412;20.970;2023-07-29T03:11:04;1.58;;;1.13;;
36061;SDS011;22123;52.412;20.970;2023-07-29T03:13:35;0.65;;;0.55;;
36061;SDS011;22123;52.412;20.970;2023-07-29T03:16:04;1.60;;;0.85;;
36061;SDS011;22123;52.412;20.970;2023-07-29T03:18:34;1.80;;;1.15;;
36061;SDS011;22123;52.412;20.970;2023-07-29T03:21:00;2.45;;;1.08;;
36061;SDS011;22123;52.412;20.970;2023-07-29T03:23:27;2.10;;;1.17;;
36061;SDS011;22123;52.412;20.970;2023-07-29T03:25:57;0.95;;;0.60;;
36061;SDS011;22123;52.412;20.970;2023-07-29T03:28:25;1.55;;;0.50;;
36061;SDS011;22123;52.412;20.970;2023-07-29T03:30:52;1.63;;;0.55;;
36061;SDS011;22123;52.412;20.970;2023-07-29T03:33:17;0.70;;;0.45;;
36061;SDS011;22123;52.412;20.970;2023-07-29T03:35:43;1.75;;;0.73;;
36061;SDS011;22123;52.412;20.970;2023-07-29T03:38:09;2.17;;;0.52;;
36061;SDS011;22123;52.412;20.970;2023-07-29T03:40:36;1.17;;;1.05;;
36061;SDS011;22123;52.412;20.970;2023-07-29T03:43:02;3.63;;;1.38;;
36061;SDS011;22123;52.412;20.970;2023-07-29T03:45:28;0.73;;;0.70;;
36061;SDS011;22123;52.412;20.970;2023-07-29T03:47:54;2.55;;;0.90;;
36061;SDS011;22123;52.412;20.970;2023-07-29T03:50:19;0.90;;;0.90;;
36061;SDS011;22123;52.412;20.970;2023-07-29T03:52:45;2.67;;;1.02;;
36061;SDS011;22123;52.412;20.970;2023-07-29T03:55:11;1.00;;;0.90;;
36061;SDS011;22123;52.412;20.970;2023-07-29T03:57:37;1.35;;;1.23;;
36061;SDS011;22123;52.412;20.970;2023-07-29T04:00:03;3.50;;;1.05;;
36061;SDS011;22123;52.412;20.970;2023-07-29T04:02:30;3.10;;;0.77;;
36061;SDS011;22123;52.412;20.970;2023-07-29T04:04:55;1.50;;;1.08;;
36061;SDS011;22123;52.412;20.970;2023-07-29T04:07:21;1.40;;;0.95;;
36061;SDS011;22123;52.412;20.970;2023-07-29T04:09:47;0.60;;;0.60;;
36061;SDS011;22123;52.412;20.970;2023-07-29T04:12:13;0.60;;;0.60;;
36061;SDS011;22123;52.412;20.970;2023-07-29T04:14:39;1.40;;;1.15;;
36061;SDS011;22123;52.412;20.970;2023-07-29T04:17:05;0.60;;;0.50;;
36061;SDS011;22123;52.412;20.970;2023-07-29T04:19:31;0.82;;;0.82;;
36061;SDS011;22123;52.412;20.970;2023-07-29T04:21:57;2.28;;;0.98;;
36061;SDS011;22123;52.412;20.970;2023-07-29T04:24:23;0.63;;;0.60;;
36061;SDS011;22123;52.412;20.970;2023-07-29T04:26:49;0.65;;;0.65;;
36061;SDS011;22123;52.412;20.970;2023-07-29T04:29:14;0.85;;;0.63;;
36061;SDS011;22123;52.412;20.970;2023-07-29T04:31:40;1.27;;;0.77;;
36061;SDS011;22123;52.412;20.970;2023-07-29T04:34:06;0.70;;;0.70;;
36061;SDS011;22123;52.412;20.970;2023-07-29T04:36:32;1.30;;;0.70;;
36061;SDS011;22123;52.412;20.970;2023-07-29T04:38:58;1.17;;;1.02;;
36061;SDS011;22123;52.412;20.970;2023-07-29T04:41:24;1.65;;;1.25;;
36061;SDS011;22123;52.412;20.970;2023-07-29T04:43:50;0.90;;;0.80;;
36061;SDS011;22123;52.412;20.970;2023-07-29T04:46:16;1.48;;;0.90;;
36061;SDS011;22123;52.412;20.970;2023-07-29T04:48:41;2.53;;;1.40;;
36061;SDS011;22123;52.412;20.970;2023-07-29T04:51:07;1.35;;;1.02;;
36061;SDS011;22123;52.412;20.970;2023-07-29T04:53:33;1.30;;;1.20;;
36061;SDS011;22123;52.412;20.970;2023-07-29T04:55:59;1.33;;;1.10;;
36061;SDS011;22123;52.412;20.970;2023-07-29T04:58:25;4.55;;;1.55;;
36061;SDS011;22123;52.412;20.970;2023-07-29T05:00:51;2.65;;;1.20;;
36061;SDS011;22123;52.412;20.970;2023-07-29T05:03:17;4.45;;;2.00;;
36061;SDS011;22123;52.412;20.970;2023-07-29T05:05:43;5.32;;;1.50;;
36061;SDS011;22123;52.412;20.970;2023-07-29T05:08:08;1.70;;;0.68;;
36061;SDS011;22123;52.412;20.970;2023-07-29T05:10:34;1.63;;;1.17;;
36061;SDS011;22123;52.412;20.970;2023-07-29T05:13:00;2.05;;;1.13;;
36061;SDS011;22123;52.412;20.970;2023-07-29T05:15:26;5.47;;;2.45;;
36061;SDS011;22123;52.412;20.970;2023-07-29T05:17:52;1.85;;;1.70;;
36061;SDS011;22123;52.412;20.970;2023-07-29T05:20:18;2.78;;;1.67;;
36061;SDS011;22123;52.412;20.970;2023-07-29T05:22:44;3.25;;;1.55;;
36061;SDS011;22123;52.412;20.970;2023-07-29T05:25:10;5.05;;;2.00;;
36061;SDS011;22123;52.412;20.970;2023-07-29T05:27:35;3.17;;;1.42;;
36061;SDS011;22123;52.412;20.970;2023-07-29T05:30:01;4.20;;;1.67;;
36061;SDS011;22123;52.412;20.970;2023-07-29T05:32:27;3.17;;;1.73;;
36061;SDS011;22123;52.412;20.970;2023-07-29T05:37:19;1.80;;;1.35;;
36061;SDS011;22123;52.412;20.970;2023-07-29T05:42:10;4.00;;;2.80;;
36061;SDS011;22123;52.412;20.970;2023-07-29T05:47:02;1.95;;;1.30;;
36061;SDS011;22123;52.412;20.970;2023-07-29T05:51:53;3.75;;;1.92;;
36061;SDS011;22123;52.412;20.970;2023-07-29T05:56:45;8.73;;;3.10;;
36061;SDS011;22123;52.412;20.970;2023-07-29T06:01:36;3.88;;;1.83;;
36061;SDS011;22123;52.412;20.970;2023-07-29T06:06:28;3.75;;;2.70;;
36061;SDS011;22123;52.412;20.970;2023-07-29T06:11:19;3.20;;;2.90;;
36061;SDS011;22123;52.412;20.970;2023-07-29T06:16:14;2.95;;;2.13;;
36061;SDS011;22123;52.412;20.970;2023-07-29T06:18:39;2.05;;;1.40;;
36061;SDS011;22123;52.412;20.970;2023-07-29T06:21:05;2.08;;;1.23;;
36061;SDS011;22123;52.412;20.970;2023-07-29T06:23:31;2.40;;;2.10;;
36061;SDS011;22123;52.412;20.970;2023-07-29T06:28:23;4.25;;;2.03;;
36061;SDS011;22123;52.412;20.970;2023-07-29T06:30:49;2.63;;;1.95;;
36061;SDS011;22123;52.412;20.970;2023-07-29T06:35:41;3.05;;;2.03;;
36061;SDS011;22123;52.412;20.970;2023-07-29T06:38:07;4.18;;;1.75;;
36061;SDS011;22123;52.412;20.970;2023-07-29T06:42:58;2.22;;;2.00;;
36061;SDS011;22123;52.412;20.970;2023-07-29T06:47:50;1.75;;;1.48;;
36061;SDS011;22123;52.412;20.970;2023-07-29T06:52:41;4.50;;;1.38;;
36061;SDS011;22123;52.412;20.970;2023-07-29T06:57:33;3.50;;;1.70;;
36061;SDS011;22123;52.412;20.970;2023-07-29T07:02:24;1.73;;;1.30;;
36061;SDS011;22123;52.412;20.970;2023-07-29T07:07:16;3.25;;;1.77;;
36061;SDS011;22123;52.412;20.970;2023-07-29T07:12:07;1.67;;;1.58;;
36061;SDS011;22123;52.412;20.970;2023-07-29T07:16:59;3.42;;;1.08;;
36061;SDS011;22123;52.412;20.970;2023-07-29T07:19:25;3.20;;;1.50;;
36061;SDS011;22123;52.412;20.970;2023-07-29T07:24:16;3.35;;;1.88;;
36061;SDS011;22123;52.412;20.970;2023-07-29T07:26:42;2.25;;;1.63;;
36061;SDS011;22123;52.412;20.970;2023-07-29T07:31:34;1.42;;;1.13;;
36061;SDS011;22123;52.412;20.970;2023-07-29T07:33:59;2.70;;;1.50;;
36061;SDS011;22123;52.412;20.970;2023-07-29T07:36:25;3.13;;;1.92;;
36061;SDS011;22123;52.412;20.970;2023-07-29T07:41:17;2.45;;;1.90;;
36061;SDS011;22123;52.412;20.970;2023-07-29T07:43:43;2.65;;;1.83;;
36061;SDS011;22123;52.412;20.970;2023-07-29T07:46:09;2.00;;;1.48;;
36061;SDS011;22123;52.412;20.970;2023-07-29T07:48:34;2.13;;;1.13;;
36061;SDS011;22123;52.412;20.970;2023-07-29T07:51:04;3.45;;;1.98;;
36061;SDS011;22123;52.412;20.970;2023-07-29T07:53:35;2.03;;;1.42;;
36061;SDS011;22123;52.412;20.970;2023-07-29T07:56:01;2.88;;;1.75;;
36061;SDS011;22123;52.412;20.970;2023-07-29T07:58:27;2.10;;;1.63;;
36061;SDS011;22123;52.412;20.970;2023-07-29T08:01:00;1.58;;;1.25;;
36061;SDS011;22123;52.412;20.970;2023-07-29T08:03:29;1.98;;;1.77;;
36061;SDS011;22123;52.412;20.970;2023-07-29T08:05:55;1.63;;;1.50;;
36061;SDS011;22123;52.412;20.970;2023-07-29T08:08:21;2.53;;;2.25;;
36061;SDS011;22123;52.412;20.970;2023-07-29T08:10:47;1.70;;;1.42;;
36061;SDS011;22123;52.412;20.970;2023-07-29T08:13:13;3.10;;;1.67;;
36061;SDS011;22123;52.412;20.970;2023-07-29T08:15:39;2.67;;;2.00;;
36061;SDS011;22123;52.412;20.970;2023-07-29T08:18:04;1.58;;;1.40;;
36061;SDS011;22123;52.412;20.970;2023-07-29T08:20:30;2.05;;;1.80;;
36061;SDS011;22123;52.412;20.970;2023-07-29T08:22:56;2.33;;;1.77;;
36061;SDS011;22123;52.412;20.970;2023-07-29T08:25:22;2.22;;;2.03;;
36061;SDS011;22123;52.412;20.970;2023-07-29T08:27:48;2.78;;;1.77;;
36061;SDS011;22123;52.412;20.970;2023-07-29T08:30:14;2.28;;;2.00;;
36061;SDS011;22123;52.412;20.970;2023-07-29T08:32:40;3.17;;;1.83;;
36061;SDS011;22123;52.412;20.970;2023-07-29T08:35:08;1.80;;;1.70;;
36061;SDS011;22123;52.412;20.970;2023-07-29T08:37:34;3.35;;;1.80;;
36061;SDS011;22123;52.412;20.970;2023-07-29T08:40:00;1.35;;;1.25;;
36061;SDS011;22123;52.412;20.970;2023-07-29T08:42:28;2.08;;;1.33;;
36061;SDS011;22123;52.412;20.970;2023-07-29T08:44:56;1.92;;;1.13;;
36061;SDS011;22123;52.412;20.970;2023-07-29T08:47:31;1.27;;;1.05;;
36061;SDS011;22123;52.412;20.970;2023-07-29T08:49:57;1.20;;;1.10;;
36061;SDS011;22123;52.412;20.970;2023-07-29T08:52:24;1.35;;;1.02;;
36061;SDS011;22123;52.412;20.970;2023-07-29T08:54:51;1.52;;;1.42;;
36061;SDS011;22123;52.412;20.970;2023-07-29T08:57:18;1.60;;;1.50;;
36061;SDS011;22123;52.412;20.970;2023-07-29T08:59:45;1.42;;;1.33;;
36061;SDS011;22123;52.412;20.970;2023-07-29T09:02:11;1.42;;;1.33;;
36061;SDS011;22123;52.412;20.970;2023-07-29T09:04:37;1.10;;;1.05;;
36061;SDS011;22123;52.412;20.970;2023-07-29T09:07:03;0.88;;;0.70;;
36061;SDS011;22123;52.412;20.970;2023-07-29T09:09:31;1.30;;;1.00;;
36061;SDS011;22123;52.412;20.970;2023-07-29T09:11:57;1.10;;;0.95;;
36061;SDS011;22123;52.412;20.970;2023-07-29T09:14:23;1.27;;;0.90;;
36061;SDS011;22123;52.412;20.970;2023-07-29T09:16:49;1.02;;;1.00;;
36061;SDS011;22123;52.412;20.970;2023-07-29T09:19:15;0.50;;;0.50;;
36061;SDS011;22123;52.412;20.970;2023-07-29T09:21:41;0.80;;;0.80;;
36061;SDS011;22123;52.412;20.970;2023-07-29T09:24:08;0.68;;;0.68;;
36061;SDS011;22123;52.412;20.970;2023-07-29T09:26:34;1.05;;;0.80;;
36061;SDS011;22123;52.412;20.970;2023-07-29T09:29:00;1.52;;;1.33;;
36061;SDS011;22123;52.412;20.970;2023-07-29T09:31:27;0.60;;;0.60;;
36061;SDS011;22123;52.412;20.970;2023-07-29T09:33:57;0.60;;;0.60;;
36061;SDS011;22123;52.412;20.970;2023-07-29T09:36:24;1.45;;;1.35;;
36061;SDS011;22123;52.412;20.970;2023-07-29T09:38:54;1.17;;;0.82;;
36061;SDS011;22123;52.412;20.970;2023-07-29T09:41:24;1.55;;;0.90;;
36061;SDS011;22123;52.412;20.970;2023-07-29T09:43:57;1.20;;;0.65;;
36061;SDS011;22123;52.412;20.970;2023-07-29T09:46:36;1.25;;;1.15;;
36061;SDS011;22123;52.412;20.970;2023-07-29T09:49:03;2.63;;;0.90;;
36061;SDS011;22123;52.412;20.970;2023-07-29T09:51:30;1.50;;;0.77;;
36061;SDS011;22123;52.412;20.970;2023-07-29T09:53:56;0.90;;;0.80;;
36061;SDS011;22123;52.412;20.970;2023-07-29T09:56:25;1.73;;;0.75;;
36061;SDS011;22123;52.412;20.970;2023-07-29T09:58:52;0.85;;;0.70;;
36061;SDS011;22123;52.412;20.970;2023-07-29T10:01:18;1.50;;;0.88;;
36061;SDS011;22123;52.412;20.970;2023-07-29T10:03:44;0.95;;;0.70;;
36061;SDS011;22123;52.412;20.970;2023-07-29T10:06:10;0.95;;;0.68;;
36061;SDS011;22123;52.412;20.970;2023-07-29T10:08:37;0.90;;;0.90;;
36061;SDS011;22123;52.412;20.970;2023-07-29T10:11:05;0.90;;;0.73;;
36061;SDS011;22123;52.412;20.970;2023-07-29T10:13:36;0.43;;;0.43;;
36061;SDS011;22123;52.412;20.970;2023-07-29T10:16:03;0.68;;;0.68;;
36061;SDS011;22123;52.412;20.970;2023-07-29T10:18:30;0.65;;;0.50;;
36061;SDS011;22123;52.412;20.970;2023-07-29T10:20:57;1.40;;;0.60;;
36061;SDS011;22123;52.412;20.970;2023-07-29T10:23:24;1.23;;;1.00;;
36061;SDS011;22123;52.412;20.970;2023-07-29T10:26:04;0.80;;;0.80;;
36061;SDS011;22123;52.412;20.970;2023-07-29T10:28:33;0.80;;;0.80;;
36061;SDS011;22123;52.412;20.970;2023-07-29T10:31:05;0.77;;;0.77;;
36061;SDS011;22123;52.412;20.970;2023-07-29T10:33:32;3.63;;;0.88;;
36061;SDS011;22123;52.412;20.970;2023-07-29T10:35:59;1.15;;;1.05;;
36061;SDS011;22123;52.412;20.970;2023-07-29T10:38:26;0.80;;;0.80;;
36061;SDS011;22123;52.412;20.970;2023-07-29T10:40:53;0.90;;;0.73;;
36061;SDS011;22123;52.412;20.970;2023-07-29T10:43:26;0.75;;;0.75;;
36061;SDS011;22123;52.412;20.970;2023-07-29T10:45:57;1.70;;;1.08;;
36061;SDS011;22123;52.412;20.970;2023-07-29T10:48:56;1.08;;;1.05;;
36061;SDS011;22123;52.412;20.970;2023-07-29T10:54:14;3.08;;;2.80;;
36061;SDS011;22123;52.412;20.970;2023-07-29T10:56:41;2.20;;;1.50;;
36061;SDS011;22123;52.412;20.970;2023-07-29T11:01:38;1.10;;;1.00;;
36061;SDS011;22123;52.412;20.970;2023-07-29T11:04:22;0.95;;;0.95;;
36061;SDS011;22123;52.412;20.970;2023-07-29T11:09:38;0.98;;;0.88;;
36061;SDS011;22123;52.412;20.970;2023-07-29T11:15:12;0.98;;;0.90;;
36061;SDS011;22123;52.412;20.970;2023-07-29T11:17:42;1.20;;;1.10;;
36061;SDS011;22123;52.412;20.970;2023-07-29T11:20:24;1.00;;;1.00;;
36061;SDS011;22123;52.412;20.970;2023-07-29T11:22:52;1.40;;;1.30;;
36061;SDS011;22123;52.412;20.970;2023-07-29T11:25:19;0.95;;;0.95;;
36061;SDS011;22123;52.412;20.970;2023-07-29T11:27:46;0.88;;;0.80;;
36061;SDS011;22123;52.412;20.970;2023-07-29T11:30:13;0.65;;;0.65;;
36061;SDS011;22123;52.412;20.970;2023-07-29T11:32:40;1.48;;;1.30;;
36061;SDS011;22123;52.412;20.970;2023-07-29T11:35:11;0.65;;;0.65;;
36061;SDS011;22123;52.412;20.970;2023-07-29T11:37:38;0.57;;;0.57;;
36061;SDS011;22123;52.412;20.970;2023-07-29T11:40:05;0.98;;;0.90;;
36061;SDS011;22123;52.412;20.970;2023-07-29T11:42:31;1.40;;;1.30;;
36061;SDS011;22123;52.412;20.970;2023-07-29T11:44:58;1.00;;;0.80;;
36061;SDS011;22123;52.412;20.970;2023-07-29T11:47:24;0.70;;;0.70;;
36061;SDS011;22123;52.412;20.970;2023-07-29T11:49:50;0.90;;;0.60;;
36061;SDS011;22123;52.412;20.970;2023-07-29T11:52:16;0.50;;;0.50;;
36061;SDS011;22123;52.412;20.970;2023-07-29T11:54:42;1.05;;;0.65;;
36061;SDS011;22123;52.412;20.970;2023-07-29T11:57:09;1.65;;;1.15;;
36061;SDS011;22123;52.412;20.970;2023-07-29T11:59:35;0.68;;;0.68;;
36061;SDS011;22123;52.412;20.970;2023-07-29T12:02:05;0.90;;;0.90;;
36061;SDS011;22123;52.412;20.970;2023-07-29T12:04:35;0.50;;;0.50;;
36061;SDS011;22123;52.412;20.970;2023-07-29T12:07:03;0.68;;;0.60;;
36061;SDS011;22123;52.412;20.970;2023-07-29T12:09:29;0.95;;;0.70;;
36061;SDS011;22123;52.412;20.970;2023-07-29T12:11:55;0.60;;;0.43;;
36061;SDS011;22123;52.412;20.970;2023-07-29T12:14:21;0.60;;;0.60;;
36061;SDS011;22123;52.412;20.970;2023-07-29T12:16:48;0.70;;;0.70;;
36061;SDS011;22123;52.412;20.970;2023-07-29T12:19:14;0.57;;;0.57;;
36061;SDS011;22123;52.412;20.970;2023-07-29T12:21:42;0.40;;;0.40;;
36061;SDS011;22123;52.412;20.970;2023-07-29T12:24:08;0.77;;;0.65;;
36061;SDS011;22123;52.412;20.970;2023-07-29T12:26:35;0.68;;;0.50;;
36061;SDS011;22123;52.412;20.970;2023-07-29T12:29:11;1.10;;;1.00;;
36061;SDS011;22123;52.412;20.970;2023-07-29T12:31:37;0.63;;;0.63;;
36061;SDS011;22123;52.412;20.970;2023-07-29T12:34:03;0.63;;;0.63;;
36061;SDS011;22123;52.412;20.970;2023-07-29T12:36:44;0.50;;;0.50;;
36061;SDS011;22123;52.412;20.970;2023-07-29T12:39:21;0.80;;;0.70;;
36061;SDS011;22123;52.412;20.970;2023-07-29T12:41:51;0.73;;;0.35;;
36061;SDS011;22123;52.412;20.970;2023-07-29T12:44:22;1.02;;;0.88;;
36061;SDS011;22123;52.412;20.970;2023-07-29T12:47:06;0.57;;;0.52;;
36061;SDS011;22123;52.412;20.970;2023-07-29T12:49:32;1.33;;;0.80;;
36061;SDS011;22123;52.412;20.970;2023-07-29T12:52:00;0.65;;;0.65;;
36061;SDS011;22123;52.412;20.970;2023-07-29T12:54:47;0.70;;;0.70;;
36061;SDS011;22123;52.412;20.970;2023-07-29T12:59:44;0.45;;;0.45;;
36061;SDS011;22123;52.412;20.970;2023-07-29T13:02:10;0.88;;;0.85;;
36061;SDS011;22123;52.412;20.970;2023-07-29T13:04:36;0.73;;;0.55;;
36061;SDS011;22123;52.412;20.970;2023-07-29T13:07:02;0.60;;;0.50;;
36061;SDS011;22123;52.412;20.970;2023-07-29T13:09:28;0.98;;;0.80;;
36061;SDS011;22123;52.412;20.970;2023-07-29T13:11:53;0.75;;;0.75;;
36061;SDS011;22123;52.412;20.970;2023-07-29T13:14:19;1.40;;;0.82;;
36061;SDS011;22123;52.412;20.970;2023-07-29T13:16:45;0.82;;;0.52;;
36061;SDS011;22123;52.412;20.970;2023-07-29T13:19:11;1.00;;;0.70;;
36061;SDS011;22123;52.412;20.970;2023-07-29T13:21:37;1.17;;;0.80;;
36061;SDS011;22123;52.412;20.970;2023-07-29T13:24:03;0.60;;;0.57;;
36061;SDS011;22123;52.412;20.970;2023-07-29T13:26:29;0.68;;;0.40;;
36061;SDS011;22123;52.412;20.970;2023-07-29T13:28:55;0.68;;;0.68;;
36061;SDS011;22123;52.412;20.970;2023-07-29T13:31:26;0.75;;;0.50;;
36061;SDS011;22123;52.412;20.970;2023-07-29T13:33:51;1.30;;;0.80;;
36061;SDS011;22123;52.412;20.970;2023-07-29T13:36:17;0.68;;;0.60;;
36061;SDS011;22123;52.412;20.970;2023-07-29T13:38:43;0.80;;;0.80;;
36061;SDS011;22123;52.412;20.970;2023-07-29T13:41:09;0.55;;;0.45;;
36061;SDS011;22123;52.412;20.970;2023-07-29T13:43:35;0.77;;;0.75;;
36061;SDS011;22123;52.412;20.970;2023-07-29T13:46:01;0.82;;;0.70;;
36061;SDS011;22123;52.412;20.970;2023-07-29T13:48:27;0.77;;;0.60;;
36061;SDS011;22123;52.412;20.970;2023-07-29T13:50:53;0.70;;;0.70;;
36061;SDS011;22123;52.412;20.970;2023-07-29T13:53:19;0.80;;;0.77;;
36061;SDS011;22123;52.412;20.970;2023-07-29T13:55:48;0.90;;;0.77;;
36061;SDS011;22123;52.412;20.970;2023-07-29T13:58:19;1.00;;;0.90;;
36061;SDS011;22123;52.412;20.970;2023-07-29T14:00:45;0.65;;;0.65;;
36061;SDS011;22123;52.412;20.970;2023-07-29T14:03:11;0.60;;;0.52;;
36061;SDS011;22123;52.412;20.970;2023-07-29T14:05:36;1.05;;;0.73;;
36061;SDS011;22123;52.412;20.970;2023-07-29T14:08:02;1.17;;;1.00;;
36061;SDS011;22123;52.412;20.970;2023-07-29T14:10:28;0.60;;;0.60;;
36061;SDS011;22123;52.412;20.970;2023-07-29T14:12:54;0.90;;;0.77;;
36061;SDS011;22123;52.412;20.970;2023-07-29T14:15:20;0.63;;;0.55;;
36061;SDS011;22123;52.412;20.970;2023-07-29T14:17:46;0.65;;;0.65;;
36061;SDS011;22123;52.412;20.970;2023-07-29T14:20:13;0.68;;;0.63;;
36061;SDS011;22123;52.412;20.970;2023-07-29T14:22:38;0.40;;;0.40;;
36061;SDS011;22123;52.412;20.970;2023-07-29T14:25:04;0.82;;;0.63;;
36061;SDS011;22123;52.412;20.970;2023-07-29T14:27:31;0.60;;;0.60;;
36061;SDS011;22123;52.412;20.970;2023-07-29T14:29:57;2.00;;;1.02;;
36061;SDS011;22123;52.412;20.970;2023-07-29T14:32:23;0.93;;;0.93;;
36061;SDS011;22123;52.412;20.970;2023-07-29T14:34:49;1.67;;;0.70;;
36061;SDS011;22123;52.412;20.970;2023-07-29T14:37:15;0.70;;;0.70;;
36061;SDS011;22123;52.412;20.970;2023-07-29T14:39:41;0.70;;;0.70;;
36061;SDS011;22123;52.412;20.970;2023-07-29T14:42:07;1.05;;;0.60;;
36061;SDS011;22123;52.412;20.970;2023-07-29T14:44:33;0.60;;;0.60;;
36061;SDS011;22123;52.412;20.970;2023-07-29T14:46:59;0.60;;;0.60;;
36061;SDS011;22123;52.412;20.970;2023-07-29T14:49:25;0.88;;;0.80;;
36061;SDS011;22123;52.412;20.970;2023-07-29T14:51:50;0.90;;;0.65;;
36061;SDS011;22123;52.412;20.970;2023-07-29T14:54:16;0.63;;;0.60;;
36061;SDS011;22123;52.412;20.970;2023-07-29T14:56:42;0.80;;;0.80;;
36061;SDS011;22123;52.412;20.970;2023-07-29T14:59:08;0.50;;;0.50;;
36061;SDS011;22123;52.412;20.970;2023-07-29T15:01:34;0.75;;;0.75;;
36061;SDS011;22123;52.412;20.970;2023-07-29T15:04:00;0.65;;;0.65;;
36061;SDS011;22123;52.412;20.970;2023-07-29T15:06:26;0.40;;;0.40;;
36061;SDS011;22123;52.412;20.970;2023-07-29T15:08:52;0.93;;;0.90;;
36061;SDS011;22123;52.412;20.970;2023-07-29T15:11:17;0.80;;;0.60;;
36061;SDS011;22123;52.412;20.970;2023-07-29T15:13:43;0.70;;;0.70;;
36061;SDS011;22123;52.412;20.970;2023-07-29T15:16:09;0.73;;;0.40;;
36061;SDS011;22123;52.412;20.970;2023-07-29T15:18:35;1.13;;;0.68;;
36061;SDS011;22123;52.412;20.970;2023-07-29T15:21:01;0.70;;;0.70;;
36061;SDS011;22123;52.412;20.970;2023-07-29T15:23:27;0.82;;;0.80;;
36061;SDS011;22123;52.412;20.970;2023-07-29T15:25:53;1.25;;;0.80;;
36061;SDS011;22123;52.412;20.970;2023-07-29T15:28:19;0.73;;;0.73;;
36061;SDS011;22123;52.412;20.970;2023-07-29T15:30:45;1.25;;;0.95;;
36061;SDS011;22123;52.412;20.970;2023-07-29T15:33:10;0.68;;;0.68;;
36061;SDS011;22123;52.412;20.970;2023-07-29T15:35:37;1.05;;;0.95;;
36061;SDS011;22123;52.412;20.970;2023-07-29T15:38:04;0.70;;;0.70;;
36061;SDS011;22123;52.412;20.970;2023-07-29T15:40:29;0.95;;;0.60;;
36061;SDS011;22123;52.412;20.970;2023-07-29T15:42:55;0.73;;;0.73;;
36061;SDS011;22123;52.412;20.970;2023-07-29T15:45:21;1.10;;;1.00;;
36061;SDS011;22123;52.412;20.970;2023-07-29T15:47:47;0.95;;;0.82;;
36061;SDS011;22123;52.412;20.970;2023-07-29T15:50:13;1.25;;;0.90;;